createdAt,value
2022-11-14T00:02:09.633Z,10.57
2022-11-14T00:04:55.791Z,10.63
2022-11-14T00:07:41.814Z,10.65
2022-11-14T00:10:27.395Z,10.80
2022-11-14T00:13:14.142Z,10.72
2022-11-14T00:16:00.068Z,10.74
2022-11-14T00:18:46.001Z,10.71
2022-11-14T00:21:32.187Z,10.73
2022-11-14T00:24:18.115Z,10.81
2022-11-14T00:27:03.796Z,10.74
2022-11-14T00:29:49.534Z,10.71
2022-11-14T00:32:35.188Z,10.78
2022-11-14T00:35:21.079Z,10.88
2022-11-14T00:38:06.596Z,10.86
2022-11-14T00:40:52.565Z,10.88
2022-11-14T00:43:38.575Z,10.87
2022-11-14T00:46:24.225Z,10.91
2022-11-14T00:49:10.421Z,10.99
2022-11-14T00:51:56.022Z,10.94
2022-11-14T00:54:42.058Z,10.88
2022-11-14T00:57:28.085Z,10.85
2022-11-14T01:00:14.448Z,10.69
2022-11-14T01:03:00.317Z,10.77
2022-11-14T01:05:48.539Z,10.80
2022-11-14T01:08:34.404Z,10.81
2022-11-14T01:11:22.160Z,10.79
2022-11-14T01:14:08.883Z,10.75
2022-11-14T01:16:54.584Z,10.72
2022-11-14T01:19:41.283Z,10.69
2022-11-14T01:22:27.202Z,10.61
2022-11-14T01:25:13.143Z,10.61
2022-11-14T01:27:59.040Z,10.63
2022-11-14T01:30:45.396Z,10.59
2022-11-14T01:33:31.059Z,10.59
2022-11-14T01:36:17.159Z,10.65
2022-11-14T01:39:03.328Z,10.69
2022-11-14T01:41:49.330Z,10.70
2022-11-14T01:44:44.257Z,10.63
2022-11-14T01:47:33.308Z,10.79
2022-11-14T01:50:19.547Z,10.77
2022-11-14T01:53:05.571Z,10.83
2022-11-14T01:55:54.307Z,10.81
2022-11-14T01:58:44.128Z,10.79
2022-11-14T02:01:34.248Z,10.86
2022-11-14T02:04:28.900Z,10.82
2022-11-14T02:07:15.289Z,10.79
2022-11-14T02:10:05.545Z,10.70
2022-11-14T02:12:52.401Z,10.83
2022-11-14T02:15:38.916Z,10.81
2022-11-14T02:18:24.988Z,10.78
2022-11-14T02:21:11.280Z,10.76
2022-11-14T02:23:57.349Z,10.79
2022-11-14T02:26:43.536Z,10.91
2022-11-14T02:29:32.421Z,10.83
2022-11-14T02:32:18.604Z,10.75
2022-11-14T02:35:04.671Z,10.78
2022-11-14T02:37:50.537Z,10.88
2022-11-14T02:40:36.199Z,11.01
2022-11-14T02:43:21.881Z,11.04
2022-11-14T02:46:07.590Z,11.00
2022-11-14T02:48:53.386Z,10.97
2022-11-14T02:51:39.264Z,10.92
2022-11-14T02:54:25.472Z,10.95
2022-11-14T02:57:11.085Z,10.91
2022-11-14T02:59:57.029Z,10.86
2022-11-14T03:02:42.947Z,10.86
2022-11-14T03:05:28.648Z,10.95
2022-11-14T03:08:14.349Z,10.97
2022-11-14T03:11:10.184Z,10.90
2022-11-14T03:13:55.879Z,10.96
2022-11-14T03:16:41.778Z,10.98
2022-11-14T03:19:27.424Z,10.86
2022-11-14T03:22:13.223Z,10.81
2022-11-14T03:24:59.618Z,10.85
2022-11-14T03:27:45.474Z,10.78
2022-11-14T03:30:31.474Z,10.83
2022-11-14T03:33:17.191Z,10.89
2022-11-14T03:36:04.537Z,10.75
2022-11-14T03:38:50.144Z,10.83
2022-11-14T03:41:36.087Z,10.71
2022-11-14T03:44:22.416Z,10.74
2022-11-14T03:47:08.280Z,10.79
2022-11-14T03:49:53.954Z,10.70
2022-11-14T03:52:39.927Z,10.68
2022-11-14T03:55:25.727Z,10.71
2022-11-14T03:58:11.532Z,10.69
2022-11-14T04:00:57.554Z,10.69
2022-11-14T04:03:43.479Z,10.73
2022-11-14T04:06:29.413Z,10.77
2022-11-14T04:09:14.989Z,10.74
2022-11-14T04:12:00.757Z,10.80
2022-11-14T04:14:46.676Z,10.76
2022-11-14T04:17:37.074Z,10.72
2022-11-14T04:20:25.582Z,10.80
2022-11-14T04:23:11.612Z,10.89
2022-11-14T04:25:57.491Z,10.84
2022-11-14T04:28:43.233Z,10.95
2022-11-14T04:31:28.980Z,11.04
2022-11-14T04:34:14.942Z,11.09
2022-11-14T04:37:00.766Z,11.20
2022-11-14T04:39:46.606Z,11.14
2022-11-14T04:42:32.607Z,11.18
2022-11-14T04:45:18.318Z,11.22
2022-11-14T04:48:04.237Z,11.17
2022-11-14T04:50:49.948Z,11.13
2022-11-14T04:53:35.847Z,10.96
2022-11-14T04:56:23.291Z,11.03
2022-11-14T04:59:09.398Z,10.98
2022-11-14T05:01:55.415Z,11.00
2022-11-14T05:04:41.610Z,10.96
2022-11-14T05:07:27.580Z,10.91
2022-11-14T05:10:13.687Z,10.91
2022-11-14T05:12:59.427Z,10.87
2022-11-14T05:15:45.436Z,10.82
2022-11-14T05:18:31.588Z,10.79
2022-11-14T05:21:17.666Z,10.84
2022-11-14T05:24:03.720Z,10.81
2022-11-14T05:26:49.710Z,10.78
2022-11-14T05:29:35.581Z,10.80
2022-11-14T05:32:22.192Z,10.84
2022-11-14T05:35:08.401Z,10.85
2022-11-14T05:37:58.909Z,10.80
2022-11-14T05:40:45.942Z,10.76
2022-11-14T05:43:31.964Z,10.64
2022-11-14T05:46:17.786Z,10.55
2022-11-14T05:49:03.559Z,10.53
2022-11-14T05:51:49.581Z,10.51
2022-11-14T05:54:35.179Z,10.51
2022-11-14T05:57:21.096Z,10.49
2022-11-14T06:00:09.429Z,10.47
2022-11-14T06:02:55.547Z,10.47
2022-11-14T06:05:41.815Z,10.48
2022-11-14T06:08:29.808Z,10.37
2022-11-14T06:11:18.884Z,10.38
2022-11-14T06:14:10.515Z,10.36
2022-11-14T06:16:56.708Z,10.40
2022-11-14T06:19:42.696Z,10.44
2022-11-14T06:22:37.206Z,10.43
2022-11-14T06:25:23.170Z,10.46
2022-11-14T06:28:09.068Z,10.44
2022-11-14T06:31:03.201Z,10.47
2022-11-14T06:33:49.008Z,10.46
2022-11-14T06:36:34.994Z,10.46
2022-11-14T06:39:20.625Z,10.52
2022-11-14T06:42:06.265Z,10.57
2022-11-14T06:44:52.153Z,10.54
2022-11-14T06:47:37.958Z,10.56
2022-11-14T06:50:23.478Z,10.57
2022-11-14T06:53:09.234Z,10.59
2022-11-14T06:55:59.918Z,10.63
2022-11-14T06:58:48.742Z,10.58
2022-11-14T07:01:34.880Z,10.60
2022-11-14T07:04:20.956Z,10.58
2022-11-14T07:07:06.560Z,10.64
2022-11-14T07:09:54.365Z,10.65
2022-11-14T07:12:40.112Z,10.68
2022-11-14T07:15:26.084Z,10.65
2022-11-14T07:18:12.250Z,10.68
2022-11-14T07:21:05.506Z,10.73
2022-11-14T07:23:52.089Z,10.80
2022-11-14T07:26:37.803Z,10.77
2022-11-14T07:29:23.752Z,10.83
2022-11-14T07:32:09.452Z,10.87
2022-11-14T07:35:00.717Z,10.88
2022-11-14T07:37:47.828Z,10.86
2022-11-14T07:40:33.993Z,10.88
2022-11-14T07:43:19.712Z,10.88
2022-11-14T07:46:08.632Z,10.85
2022-11-14T07:48:55.117Z,10.87
2022-11-14T07:51:41.032Z,10.85
2022-11-14T07:54:27.020Z,10.86
2022-11-14T07:57:13.083Z,10.82
2022-11-14T07:59:58.985Z,10.83
2022-11-14T08:02:46.524Z,10.92
2022-11-14T08:05:32.604Z,10.93
2022-11-14T08:08:18.116Z,10.95
2022-11-14T08:11:05.147Z,11.00
2022-11-14T08:13:51.483Z,11.00
2022-11-14T08:16:37.433Z,10.89
2022-11-14T08:19:23.661Z,10.95
2022-11-14T08:22:09.937Z,11.02
2022-11-14T08:24:55.732Z,11.06
2022-11-14T08:27:41.487Z,11.14
2022-11-14T08:30:28.016Z,11.11
2022-11-14T08:33:13.943Z,11.19
2022-11-14T08:36:04.598Z,11.27
2022-11-14T08:38:51.752Z,11.33
2022-11-14T08:41:38.127Z,11.31
2022-11-14T08:44:23.968Z,11.40
2022-11-14T08:47:09.770Z,11.40
2022-11-14T08:49:55.624Z,11.45
2022-11-14T08:52:41.318Z,11.54
2022-11-14T08:55:27.320Z,11.54
2022-11-14T08:58:13.327Z,11.56
2022-11-14T09:01:01.578Z,11.56
2022-11-14T09:03:47.704Z,11.62
2022-11-14T09:06:33.506Z,11.65
2022-11-14T09:09:19.239Z,11.58
2022-11-14T09:12:05.406Z,11.58
2022-11-14T09:14:51.475Z,11.60
2022-11-14T09:17:37.535Z,11.66
2022-11-14T09:20:54.904Z,11.58
2022-11-14T09:23:40.719Z,11.78
2022-11-14T09:26:26.708Z,11.84
2022-11-14T09:29:12.320Z,11.90
2022-11-14T09:31:58.209Z,11.96
2022-11-14T09:34:45.639Z,11.95
2022-11-14T09:37:31.549Z,11.94
2022-11-14T09:40:17.434Z,12.02
2022-11-14T09:43:23.291Z,12.04
2022-11-14T09:46:48.693Z,12.04
2022-11-14T09:49:41.452Z,12.10
2022-11-14T09:52:36.883Z,12.19
2022-11-14T09:55:36.874Z,12.19
2022-11-14T09:58:23.511Z,12.23
2022-11-14T10:01:29.296Z,12.33
2022-11-14T10:04:39.576Z,12.39
2022-11-14T10:07:37.029Z,12.43
2022-11-14T10:10:37.341Z,12.53
2022-11-14T10:13:43.021Z,12.65
2022-11-14T10:16:44.649Z,12.60
2022-11-14T10:19:55.860Z,12.61
2022-11-14T10:23:06.316Z,12.67
2022-11-14T10:25:55.033Z,12.76
2022-11-14T10:29:10.392Z,12.83
2022-11-14T10:32:07.305Z,12.89
2022-11-14T10:35:04.129Z,12.92
2022-11-14T10:38:08.055Z,12.95
2022-11-14T10:40:58.559Z,13.11
2022-11-14T10:43:49.437Z,13.20
2022-11-14T10:46:41.617Z,13.18
2022-11-14T10:49:31.758Z,13.15
2022-11-14T10:52:22.503Z,13.29
2022-11-14T10:55:15.380Z,13.36
2022-11-14T10:58:01.541Z,13.29
2022-11-14T11:00:47.778Z,13.30
2022-11-14T11:03:42.564Z,13.36
2022-11-14T11:06:29.487Z,13.26
2022-11-14T11:09:46.190Z,13.37
2022-11-14T11:12:44.570Z,13.46
2022-11-14T11:15:31.816Z,13.54
2022-11-14T11:18:31.708Z,13.54
2022-11-14T11:21:23.567Z,13.49
2022-11-14T11:24:09.389Z,13.54
2022-11-14T11:27:13.828Z,13.66
2022-11-14T11:30:21.018Z,13.72
2022-11-14T11:33:22.396Z,13.66
2022-11-14T11:36:18.291Z,13.90
2022-11-14T11:39:03.924Z,14.01
2022-11-14T11:42:08.880Z,14.01
2022-11-14T11:45:00.043Z,14.03
2022-11-14T11:48:01.200Z,14.15
2022-11-14T11:50:47.983Z,14.14
2022-11-14T11:54:05.460Z,14.06
2022-11-14T11:56:58.696Z,14.02
2022-11-14T11:59:49.661Z,14.03
2022-11-14T12:02:44.919Z,14.06
2022-11-14T12:05:47.316Z,14.04
2022-11-14T12:08:56.727Z,14.05
2022-11-14T12:11:49.108Z,14.04
2022-11-14T12:14:51.640Z,14.11
2022-11-14T12:17:49.602Z,14.13
2022-11-14T12:20:52.551Z,14.04
2022-11-14T12:24:00.896Z,14.12
2022-11-14T12:26:49.431Z,14.08
2022-11-14T12:29:47.621Z,14.14
2022-11-14T12:32:53.575Z,14.19
2022-11-14T12:35:51.337Z,14.37
2022-11-14T12:38:53.772Z,14.34
2022-11-14T12:41:40.665Z,14.33
2022-11-14T12:44:29.640Z,14.31
2022-11-14T12:47:23.858Z,14.32
2022-11-14T12:50:38.815Z,14.30
2022-11-14T12:53:36.993Z,14.28
2022-11-14T12:56:31.483Z,14.27
2022-11-14T12:59:35.904Z,14.27
2022-11-14T13:02:49.311Z,14.19
2022-11-14T13:06:00.021Z,14.22
2022-11-14T13:09:06.682Z,14.24
2022-11-14T13:12:11.416Z,14.13
2022-11-14T13:15:33.072Z,14.18
2022-11-14T13:18:41.916Z,14.32
2022-11-14T13:21:46.613Z,14.28
2022-11-14T13:25:03.942Z,14.33
2022-11-14T13:28:07.343Z,14.40
2022-11-14T13:31:16.674Z,14.44
2022-11-14T13:34:40.306Z,14.47
2022-11-14T13:38:13.422Z,14.41
2022-11-14T13:41:27.290Z,14.36
2022-11-14T13:44:22.047Z,14.39
2022-11-14T13:47:25.439Z,14.21
2022-11-14T13:50:18.955Z,14.29
2022-11-14T13:53:20.480Z,14.23
2022-11-14T13:56:31.038Z,14.18
2022-11-14T13:59:43.964Z,14.16
2022-11-14T14:03:03.412Z,14.11
2022-11-14T14:05:54.845Z,14.17
2022-11-14T14:08:52.752Z,14.08
2022-11-14T14:11:43.146Z,14.08
2022-11-14T14:14:55.363Z,14.02
2022-11-14T14:17:49.609Z,14.11
2022-11-14T14:20:53.681Z,14.12
2022-11-14T14:23:56.998Z,14.13
2022-11-14T14:27:06.176Z,14.17
2022-11-14T14:30:00.689Z,14.13
2022-11-14T14:33:06.899Z,14.04
2022-11-14T14:35:54.514Z,13.98
2022-11-14T14:38:40.103Z,13.97
2022-11-14T14:41:31.141Z,13.99
2022-11-14T14:44:23.361Z,13.98
2022-11-14T14:47:16.364Z,13.94
2022-11-14T14:50:06.815Z,13.89
2022-11-14T14:52:57.657Z,13.86
2022-11-14T14:55:55.393Z,13.82
2022-11-14T14:58:41.757Z,13.79
2022-11-14T15:01:35.159Z,13.78
2022-11-14T15:04:23.265Z,13.79
2022-11-14T15:07:25.126Z,13.77
2022-11-14T15:10:22.348Z,13.84
2022-11-14T15:13:14.193Z,13.82
2022-11-14T15:16:01.852Z,13.75
2022-11-14T15:18:48.896Z,13.69
2022-11-14T15:21:35.070Z,13.67
2022-11-14T15:24:23.208Z,13.66
2022-11-14T15:27:13.276Z,13.54
2022-11-14T15:30:07.801Z,13.56
2022-11-14T15:32:55.686Z,13.53
2022-11-14T15:35:41.528Z,13.45
2022-11-14T15:38:44.397Z,13.34
2022-11-14T15:41:32.567Z,13.30
2022-11-14T15:44:32.637Z,13.16
2022-11-14T15:47:27.847Z,13.12
2022-11-14T15:50:13.701Z,13.09
2022-11-14T15:53:05.136Z,12.97
2022-11-14T15:55:51.519Z,12.89
2022-11-14T15:58:37.180Z,12.88
2022-11-14T16:01:26.114Z,12.84
2022-11-14T16:04:16.642Z,12.80
2022-11-14T16:07:02.397Z,12.73
2022-11-14T16:09:48.515Z,12.68
2022-11-14T16:12:34.327Z,12.69
2022-11-14T16:15:21.369Z,12.69
2022-11-14T16:18:07.001Z,12.65
2022-11-14T16:20:52.827Z,12.60
2022-11-14T16:23:39.401Z,12.56
2022-11-14T16:26:26.371Z,12.50
2022-11-14T16:29:12.873Z,12.47
2022-11-14T16:31:58.668Z,12.39
2022-11-14T16:34:44.729Z,12.26
2022-11-14T16:37:30.909Z,12.24
2022-11-14T16:40:26.963Z,12.14
2022-11-14T16:43:14.484Z,12.24
2022-11-14T16:46:07.462Z,12.26
2022-11-14T16:48:55.461Z,12.24
2022-11-14T16:51:50.450Z,12.23
2022-11-14T16:54:36.769Z,12.25
2022-11-14T16:57:23.129Z,12.21
2022-11-14T17:00:12.400Z,12.17
2022-11-14T17:02:58.358Z,12.15
2022-11-14T17:05:45.703Z,12.04
2022-11-14T17:08:31.901Z,12.03
2022-11-14T17:11:17.530Z,11.95
2022-11-14T17:14:03.729Z,11.86
2022-11-14T17:16:49.746Z,11.78
2022-11-14T17:19:35.437Z,11.76
2022-11-14T17:22:21.312Z,11.78
2022-11-14T17:25:07.305Z,11.71
2022-11-14T17:27:53.012Z,11.71
2022-11-14T17:30:42.716Z,11.67
2022-11-14T17:33:29.126Z,11.63
2022-11-14T17:36:15.240Z,11.59
2022-11-14T17:39:01.425Z,11.59
2022-11-14T17:41:47.258Z,11.45
2022-11-14T17:44:33.106Z,11.35
2022-11-14T17:47:20.172Z,11.45
2022-11-14T17:50:06.609Z,11.50
2022-11-14T17:52:52.625Z,11.44
2022-11-14T17:55:38.585Z,11.30
2022-11-14T17:58:24.991Z,11.29
2022-11-14T18:01:16.415Z,11.26
2022-11-14T18:04:06.154Z,11.29
2022-11-14T18:06:53.335Z,11.20
2022-11-14T18:09:39.168Z,11.11
2022-11-14T18:12:24.982Z,11.10
2022-11-14T18:15:11.088Z,11.11
2022-11-14T18:17:57.128Z,11.13
2022-11-14T18:20:43.435Z,11.08
2022-11-14T18:23:29.538Z,11.13
2022-11-14T18:26:16.472Z,11.10
2022-11-14T18:29:02.494Z,11.02
2022-11-14T18:31:48.451Z,11.00
2022-11-14T18:34:37.124Z,11.01
2022-11-14T18:37:23.274Z,10.96
2022-11-14T18:40:16.093Z,10.92
2022-11-14T18:43:02.930Z,10.93
2022-11-14T18:45:48.852Z,10.94
2022-11-14T18:48:36.167Z,10.91
2022-11-14T18:51:25.488Z,10.80
2022-11-14T18:54:13.270Z,10.84
2022-11-14T18:56:59.097Z,10.79
2022-11-14T18:59:44.902Z,10.79
2022-11-14T19:02:31.485Z,10.77
2022-11-14T19:05:17.540Z,10.71
2022-11-14T19:08:05.286Z,10.73
2022-11-14T19:10:51.332Z,10.64
2022-11-14T19:13:37.089Z,10.63
2022-11-14T19:16:23.422Z,10.73
2022-11-14T19:19:09.726Z,10.74
2022-11-14T19:21:56.657Z,10.60
2022-11-14T19:24:45.104Z,10.59
2022-11-14T19:27:32.706Z,10.54
2022-11-14T19:30:18.606Z,10.41
2022-11-14T19:33:04.919Z,10.35
2022-11-14T19:35:50.853Z,10.36
2022-11-14T19:38:36.900Z,10.39
2022-11-14T19:41:28.101Z,10.40
2022-11-14T19:44:14.316Z,10.37
2022-11-14T19:47:04.619Z,10.49
2022-11-14T19:49:50.724Z,10.52
2022-11-14T19:52:36.956Z,10.49
2022-11-14T19:55:22.895Z,10.38
2022-11-14T19:58:08.873Z,10.44
2022-11-14T20:01:02.439Z,10.51
2022-11-14T20:03:55.013Z,10.56
2022-11-14T20:06:41.734Z,10.53
2022-11-14T20:09:27.407Z,10.47
2022-11-14T20:12:13.532Z,10.49
2022-11-14T20:14:59.415Z,10.47
2022-11-14T20:17:46.086Z,10.39
2022-11-14T20:20:32.039Z,10.38
2022-11-14T20:23:18.128Z,10.18
2022-11-14T20:26:10.970Z,10.14
2022-11-14T20:28:59.281Z,10.14
2022-11-14T20:31:46.073Z,10.13
2022-11-14T20:34:32.419Z,10.15
2022-11-14T20:37:18.749Z,10.13
2022-11-14T20:40:05.651Z,10.11
2022-11-14T20:42:52.257Z,10.10
2022-11-14T20:45:39.144Z,10.13
2022-11-14T20:48:28.379Z,10.07
2022-11-14T20:51:21.678Z,10.07
2022-11-14T20:54:09.248Z,10.01
2022-11-14T20:56:55.872Z,9.88
2022-11-14T20:59:43.101Z,9.88
2022-11-14T21:02:30.441Z,9.85
2022-11-14T21:05:16.634Z,9.87
2022-11-14T21:08:02.509Z,9.83
2022-11-14T21:10:52.194Z,9.91
2022-11-14T21:13:59.094Z,9.85
2022-11-14T21:16:45.808Z,9.72
2022-11-14T21:19:32.077Z,9.65
2022-11-14T21:22:18.022Z,9.59
2022-11-14T21:25:24.435Z,9.53
2022-11-14T21:28:38.985Z,9.61
2022-11-14T21:32:05.575Z,9.65
2022-11-14T21:35:05.697Z,9.54
2022-11-14T21:38:04.221Z,9.43
2022-11-14T21:40:57.694Z,9.54
2022-11-14T21:44:03.449Z,9.46
2022-11-14T21:46:58.248Z,9.43
2022-11-14T21:50:01.001Z,9.39
2022-11-14T21:52:48.290Z,9.49
2022-11-14T21:55:42.415Z,9.50
2022-11-14T21:58:30.573Z,9.57
2022-11-14T22:01:38.627Z,9.37
2022-11-14T22:04:25.269Z,9.26
2022-11-14T22:07:11.480Z,9.36
2022-11-14T22:09:57.636Z,9.49
2022-11-14T22:12:43.341Z,9.45
2022-11-14T22:15:28.984Z,9.54
2022-11-14T22:18:15.016Z,9.39
2022-11-14T22:21:01.322Z,9.43
2022-11-14T22:23:47.150Z,9.35
2022-11-14T22:26:36.497Z,9.39
2022-11-14T22:29:22.624Z,9.39
2022-11-14T22:32:08.365Z,9.34
2022-11-14T22:34:53.958Z,9.23
2022-11-14T22:37:39.810Z,9.23
2022-11-14T22:40:25.498Z,9.18
2022-11-14T22:43:11.580Z,8.93
2022-11-14T22:45:57.438Z,8.83
2022-11-14T22:48:45.061Z,8.84
2022-11-14T22:51:31.758Z,8.77
2022-11-14T22:54:19.319Z,8.86
2022-11-14T22:57:05.373Z,8.84
2022-11-14T22:59:51.236Z,8.82
2022-11-14T23:02:36.947Z,8.64
2022-11-14T23:05:22.975Z,8.74
2022-11-14T23:08:08.889Z,8.72
2022-11-14T23:10:55.156Z,8.77
2022-11-14T23:13:43.713Z,8.85
2022-11-14T23:16:33.551Z,8.69
2022-11-14T23:19:19.720Z,8.71
2022-11-14T23:22:37.064Z,8.68
2022-11-14T23:25:24.076Z,8.66
2022-11-14T23:28:10.185Z,8.60
2022-11-14T23:30:57.246Z,8.57
2022-11-14T23:33:43.369Z,8.43
2022-11-14T23:36:29.150Z,8.32
2022-11-14T23:39:15.074Z,8.59
2022-11-14T23:42:00.833Z,8.56
2022-11-14T23:44:46.855Z,8.38
2022-11-14T23:47:33.980Z,8.57
2022-11-14T23:50:20.057Z,8.52
2022-11-14T23:53:06.038Z,8.52
2022-11-14T23:55:56.887Z,8.25
2022-11-14T23:58:43.092Z,8.33
